sensor_id;sensor_type;location;lat;lon;timestamp;P1;durP1;ratioP1;P2;durP2;ratioP2
28934;SDS011;16044;52.726;-2.108;2023-02-11T00:01:07;13.30;;;7.30;;
28934;SDS011;16044;52.726;-2.108;2023-02-11T00:03:37;12.50;;;5.18;;
28934;SDS011;16044;52.726;-2.108;2023-02-11T00:06:05;16.17;;;4.38;;
28934;SDS011;16044;52.726;-2.108;2023-02-11T00:08:37;12.05;;;3.90;;
28934;SDS011;16044;52.726;-2.108;2023-02-11T00:11:05;11.50;;;3.42;;
28934;SDS011;16044;52.726;-2.108;2023-02-11T00:13:32;14.52;;;3.03;;
28934;SDS011;16044;52.726;-2.108;2023-02-11T00:16:04;8.05;;;2.67;;
28934;SDS011;16044;52.726;-2.108;2023-02-11T00:18:36;10.18;;;3.13;;
28934;SDS011;16044;52.726;-2.108;2023-02-11T00:21:04;9.70;;;2.78;;
28934;SDS011;16044;52.726;-2.108;2023-02-11T00:23:34;14.43;;;2.92;;
28934;SDS011;16044;52.726;-2.108;2023-02-11T00:26:02;13.27;;;3.10;;
28934;SDS011;16044;52.726;-2.108;2023-02-11T00:28:30;14.40;;;2.90;;
28934;SDS011;16044;52.726;-2.108;2023-02-11T00:30:57;10.82;;;2.78;;
28934;SDS011;16044;52.726;-2.108;2023-02-11T00:33:27;12.02;;;2.70;;
28934;SDS011;16044;52.726;-2.108;2023-02-11T00:35:54;15.77;;;3.17;;
28934;SDS011;16044;52.726;-2.108;2023-02-11T00:38:21;11.30;;;2.70;;
28934;SDS011;16044;52.726;-2.108;2023-02-11T00:40:48;7.93;;;2.80;;
28934;SDS011;16044;52.726;-2.108;2023-02-11T00:43:15;10.82;;;3.10;;
28934;SDS011;16044;52.726;-2.108;2023-02-11T00:45:41;14.68;;;3.38;;
28934;SDS011;16044;52.726;-2.108;2023-02-11T00:48:09;10.70;;;3.05;;
28934;SDS011;16044;52.726;-2.108;2023-02-11T00:50:35;12.90;;;3.10;;
28934;SDS011;16044;52.726;-2.108;2023-02-11T00:53:02;11.43;;;3.47;;
28934;SDS011;16044;52.726;-2.108;2023-02-11T00:55:29;10.52;;;3.17;;
28934;SDS011;16044;52.726;-2.108;2023-02-11T00:57:56;10.98;;;3.10;;
28934;SDS011;16044;52.726;-2.108;2023-02-11T01:00:25;11.68;;;3.60;;
28934;SDS011;16044;52.726;-2.108;2023-02-11T01:02:54;14.93;;;4.25;;
28934;SDS011;16044;52.726;-2.108;2023-02-11T01:05:21;11.60;;;3.53;;
28934;SDS011;16044;52.726;-2.108;2023-02-11T01:07:50;11.77;;;3.90;;
28934;SDS011;16044;52.726;-2.108;2023-02-11T01:10:17;10.20;;;4.28;;
28934;SDS011;16044;52.726;-2.108;2023-02-11T01:12:44;12.55;;;4.18;;
28934;SDS011;16044;52.726;-2.108;2023-02-11T01:15:13;9.07;;;3.28;;
28934;SDS011;16044;52.726;-2.108;2023-02-11T01:17:41;11.48;;;3.20;;
28934;SDS011;16044;52.726;-2.108;2023-02-11T01:20:13;12.13;;;3.67;;
28934;SDS011;16044;52.726;-2.108;2023-02-11T01:25:10;12.90;;;4.78;;
28934;SDS011;16044;52.726;-2.108;2023-02-11T01:27:38;11.55;;;4.32;;
28934;SDS011;16044;52.726;-2.108;2023-02-11T01:30:06;12.23;;;3.70;;
28934;SDS011;16044;52.726;-2.108;2023-02-11T01:32:37;11.45;;;3.60;;
28934;SDS011;16044;52.726;-2.108;2023-02-11T01:35:04;13.40;;;3.95;;
28934;SDS011;16044;52.726;-2.108;2023-02-11T01:37:35;13.90;;;4.13;;
28934;SDS011;16044;52.726;-2.108;2023-02-11T01:40:03;12.93;;;3.45;;
28934;SDS011;16044;52.726;-2.108;2023-02-11T01:42:33;11.45;;;3.40;;
28934;SDS011;16044;52.726;-2.108;2023-02-11T01:45:00;9.02;;;3.17;;
28934;SDS011;16044;52.726;-2.108;2023-02-11T01:48:20;8.30;;;3.20;;
28934;SDS011;16044;52.726;-2.108;2023-02-11T01:50:53;8.95;;;3.40;;
28934;SDS011;16044;52.726;-2.108;2023-02-11T01:53:36;11.40;;;3.70;;
28934;SDS011;16044;52.726;-2.108;2023-02-11T01:56:22;13.00;;;3.30;;
28934;SDS011;16044;52.726;-2.108;2023-02-11T01:59:11;17.30;;;3.88;;
28934;SDS011;16044;52.726;-2.108;2023-02-11T02:01:46;17.30;;;3.83;;
28934;SDS011;16044;52.726;-2.108;2023-02-11T02:04:22;14.50;;;3.63;;
28934;SDS011;16044;52.726;-2.108;2023-02-11T02:06:58;9.85;;;3.15;;
28934;SDS011;16044;52.726;-2.108;2023-02-11T02:09:36;12.70;;;3.22;;
28934;SDS011;16044;52.726;-2.108;2023-02-11T02:12:08;12.98;;;3.78;;
28934;SDS011;16044;52.726;-2.108;2023-02-11T02:14:38;10.48;;;2.92;;
28934;SDS011;16044;52.726;-2.108;2023-02-11T02:17:09;9.68;;;2.97;;
28934;SDS011;16044;52.726;-2.108;2023-02-11T02:28:56;11.55;;;3.13;;
28934;SDS011;16044;52.726;-2.108;2023-02-11T02:31:51;16.55;;;3.65;;
28934;SDS011;16044;52.726;-2.108;2023-02-11T02:40:50;12.50;;;3.00;;
28934;SDS011;16044;52.726;-2.108;2023-02-11T02:43:29;9.60;;;2.85;;
28934;SDS011;16044;52.726;-2.108;2023-02-11T02:46:17;10.30;;;2.88;;
28934;SDS011;16044;52.726;-2.108;2023-02-11T02:48:48;8.15;;;2.22;;
28934;SDS011;16044;52.726;-2.108;2023-02-11T02:57:29;9.45;;;2.40;;
28934;SDS011;16044;52.726;-2.108;2023-02-11T03:09:18;14.07;;;3.00;;
28934;SDS011;16044;52.726;-2.108;2023-02-11T03:12:06;11.73;;;2.65;;
28934;SDS011;16044;52.726;-2.108;2023-02-11T03:14:35;10.73;;;2.53;;
28934;SDS011;16044;52.726;-2.108;2023-02-11T03:17:04;12.80;;;2.65;;
28934;SDS011;16044;52.726;-2.108;2023-02-11T03:19:34;8.00;;;2.38;;
28934;SDS011;16044;52.726;-2.108;2023-02-11T03:22:19;9.57;;;2.35;;
28934;SDS011;16044;52.726;-2.108;2023-02-11T03:24:53;7.35;;;2.28;;
28934;SDS011;16044;52.726;-2.108;2023-02-11T03:27:26;13.80;;;2.60;;
28934;SDS011;16044;52.726;-2.108;2023-02-11T03:30:21;11.82;;;2.58;;
28934;SDS011;16044;52.726;-2.108;2023-02-11T03:33:24;12.88;;;2.50;;
28934;SDS011;16044;52.726;-2.108;2023-02-11T03:36:01;7.80;;;2.30;;
28934;SDS011;16044;52.726;-2.108;2023-02-11T03:38:38;8.52;;;2.20;;
28934;SDS011;16044;52.726;-2.108;2023-02-11T03:41:14;10.88;;;2.65;;
28934;SDS011;16044;52.726;-2.108;2023-02-11T03:43:44;12.10;;;2.55;;
28934;SDS011;16044;52.726;-2.108;2023-02-11T03:46:17;9.18;;;2.40;;
28934;SDS011;16044;52.726;-2.108;2023-02-11T03:48:48;10.15;;;2.50;;
28934;SDS011;16044;52.726;-2.108;2023-02-11T03:51:20;8.60;;;2.28;;
28934;SDS011;16044;52.726;-2.108;2023-02-11T03:53:51;7.70;;;2.30;;
28934;SDS011;16044;52.726;-2.108;2023-02-11T03:56:21;12.57;;;2.53;;
28934;SDS011;16044;52.726;-2.108;2023-02-11T03:58:52;10.65;;;2.58;;
28934;SDS011;16044;52.726;-2.108;2023-02-11T04:01:19;9.85;;;2.53;;
28934;SDS011;16044;52.726;-2.108;2023-02-11T04:03:47;7.22;;;2.30;;
28934;SDS011;16044;52.726;-2.108;2023-02-11T04:06:13;9.25;;;2.25;;
28934;SDS011;16044;52.726;-2.108;2023-02-11T04:08:40;6.22;;;2.60;;
28934;SDS011;16044;52.726;-2.108;2023-02-11T04:11:07;11.48;;;2.70;;
28934;SDS011;16044;52.726;-2.108;2023-02-11T04:13:34;9.05;;;2.33;;
28934;SDS011;16044;52.726;-2.108;2023-02-11T04:16:01;8.52;;;2.33;;
28934;SDS011;16044;52.726;-2.108;2023-02-11T04:18:28;10.70;;;2.67;;
28934;SDS011;16044;52.726;-2.108;2023-02-11T04:20:55;10.52;;;2.50;;
28934;SDS011;16044;52.726;-2.108;2023-02-11T04:23:22;8.05;;;2.70;;
28934;SDS011;16044;52.726;-2.108;2023-02-11T04:25:49;9.50;;;2.50;;
28934;SDS011;16044;52.726;-2.108;2023-02-11T04:28:16;11.45;;;2.90;;
28934;SDS011;16044;52.726;-2.108;2023-02-11T04:30:43;13.32;;;2.80;;
28934;SDS011;16044;52.726;-2.108;2023-02-11T04:33:10;8.65;;;2.72;;
28934;SDS011;16044;52.726;-2.108;2023-02-11T04:35:37;11.10;;;2.88;;
28934;SDS011;16044;52.726;-2.108;2023-02-11T04:38:04;6.05;;;2.50;;
28934;SDS011;16044;52.726;-2.108;2023-02-11T04:40:30;9.55;;;2.70;;
28934;SDS011;16044;52.726;-2.108;2023-02-11T04:43:02;7.30;;;2.40;;
28934;SDS011;16044;52.726;-2.108;2023-02-11T04:45:28;7.03;;;2.42;;
28934;SDS011;16044;52.726;-2.108;2023-02-11T04:47:55;9.70;;;2.72;;
28934;SDS011;16044;52.726;-2.108;2023-02-11T04:50:22;13.05;;;3.45;;
28934;SDS011;16044;52.726;-2.108;2023-02-11T04:52:49;14.35;;;3.03;;
28934;SDS011;16044;52.726;-2.108;2023-02-11T04:55:16;9.00;;;2.88;;
28934;SDS011;16044;52.726;-2.108;2023-02-11T04:57:43;9.45;;;3.30;;
28934;SDS011;16044;52.726;-2.108;2023-02-11T05:00:10;9.15;;;3.03;;
28934;SDS011;16044;52.726;-2.108;2023-02-11T05:02:37;9.52;;;3.17;;
28934;SDS011;16044;52.726;-2.108;2023-02-11T05:05:04;9.30;;;3.20;;
28934;SDS011;16044;52.726;-2.108;2023-02-11T05:07:31;9.85;;;3.50;;
28934;SDS011;16044;52.726;-2.108;2023-02-11T05:09:58;8.45;;;3.38;;
28934;SDS011;16044;52.726;-2.108;2023-02-11T05:12:25;14.65;;;3.38;;
28934;SDS011;16044;52.726;-2.108;2023-02-11T05:14:52;9.77;;;3.25;;
28934;SDS011;16044;52.726;-2.108;2023-02-11T05:17:19;12.00;;;4.28;;
28934;SDS011;16044;52.726;-2.108;2023-02-11T05:19:46;16.25;;;6.68;;
28934;SDS011;16044;52.726;-2.108;2023-02-11T05:22:12;23.70;;;8.02;;
28934;SDS011;16044;52.726;-2.108;2023-02-11T05:24:39;21.70;;;8.40;;
28934;SDS011;16044;52.726;-2.108;2023-02-11T05:27:06;32.13;;;12.93;;
28934;SDS011;16044;52.726;-2.108;2023-02-11T05:29:33;31.30;;;12.43;;
28934;SDS011;16044;52.726;-2.108;2023-02-11T05:32:00;27.15;;;10.93;;
28934;SDS011;16044;52.726;-2.108;2023-02-11T05:34:27;31.40;;;12.05;;
28934;SDS011;16044;52.726;-2.108;2023-02-11T05:36:54;26.30;;;14.50;;
28934;SDS011;16044;52.726;-2.108;2023-02-11T05:39:21;27.02;;;12.45;;
28934;SDS011;16044;52.726;-2.108;2023-02-11T05:41:48;26.10;;;12.38;;
28934;SDS011;16044;52.726;-2.108;2023-02-11T05:44:15;27.13;;;11.93;;
28934;SDS011;16044;52.726;-2.108;2023-02-11T05:46:42;25.73;;;10.95;;
28934;SDS011;16044;52.726;-2.108;2023-02-11T05:49:09;22.63;;;10.70;;
28934;SDS011;16044;52.726;-2.108;2023-02-11T05:51:36;22.45;;;9.75;;
28934;SDS011;16044;52.726;-2.108;2023-02-11T05:54:03;18.70;;;8.05;;
28934;SDS011;16044;52.726;-2.108;2023-02-11T05:56:30;17.10;;;6.47;;
28934;SDS011;16044;52.726;-2.108;2023-02-11T05:58:57;14.15;;;5.50;;
28934;SDS011;16044;52.726;-2.108;2023-02-11T06:01:25;9.93;;;4.80;;
28934;SDS011;16044;52.726;-2.108;2023-02-11T06:03:52;10.45;;;4.38;;
28934;SDS011;16044;52.726;-2.108;2023-02-11T06:06:19;15.55;;;4.90;;
28934;SDS011;16044;52.726;-2.108;2023-02-11T06:08:46;14.00;;;5.22;;
28934;SDS011;16044;52.726;-2.108;2023-02-11T06:11:13;11.70;;;4.57;;
28934;SDS011;16044;52.726;-2.108;2023-02-11T06:13:41;12.00;;;4.85;;
28934;SDS011;16044;52.726;-2.108;2023-02-11T06:16:09;15.30;;;5.10;;
28934;SDS011;16044;52.726;-2.108;2023-02-11T06:18:36;16.73;;;4.90;;
28934;SDS011;16044;52.726;-2.108;2023-02-11T06:21:06;9.25;;;3.70;;
28934;SDS011;16044;52.726;-2.108;2023-02-11T06:23:35;14.15;;;4.90;;
28934;SDS011;16044;52.726;-2.108;2023-02-11T06:26:04;11.20;;;4.60;;
28934;SDS011;16044;52.726;-2.108;2023-02-11T06:28:34;8.57;;;4.22;;
28934;SDS011;16044;52.726;-2.108;2023-02-11T06:31:05;15.73;;;4.60;;
28934;SDS011;16044;52.726;-2.108;2023-02-11T06:33:33;13.18;;;4.78;;
28934;SDS011;16044;52.726;-2.108;2023-02-11T06:36:01;12.95;;;4.80;;
28934;SDS011;16044;52.726;-2.108;2023-02-11T06:38:29;10.32;;;4.50;;
28934;SDS011;16044;52.726;-2.108;2023-02-11T06:40:56;12.52;;;4.70;;
28934;SDS011;16044;52.726;-2.108;2023-02-11T06:43:23;18.35;;;5.70;;
28934;SDS011;16044;52.726;-2.108;2023-02-11T06:45:53;11.25;;;4.88;;
28934;SDS011;16044;52.726;-2.108;2023-02-11T06:48:21;13.10;;;4.70;;
28934;SDS011;16044;52.726;-2.108;2023-02-11T06:50:49;15.93;;;6.70;;
28934;SDS011;16044;52.726;-2.108;2023-02-11T06:53:16;18.35;;;7.38;;
28934;SDS011;16044;52.726;-2.108;2023-02-11T06:55:42;12.40;;;4.97;;
28934;SDS011;16044;52.726;-2.108;2023-02-11T06:58:09;16.65;;;6.10;;
28934;SDS011;16044;52.726;-2.108;2023-02-11T07:00:36;21.83;;;7.43;;
28934;SDS011;16044;52.726;-2.108;2023-02-11T07:03:03;16.92;;;7.47;;
28934;SDS011;16044;52.726;-2.108;2023-02-11T07:05:30;14.50;;;6.85;;
28934;SDS011;16044;52.726;-2.108;2023-02-11T07:07:59;22.92;;;8.38;;
28934;SDS011;16044;52.726;-2.108;2023-02-11T07:10:26;20.60;;;8.68;;
28934;SDS011;16044;52.726;-2.108;2023-02-11T07:12:53;26.60;;;9.88;;
28934;SDS011;16044;52.726;-2.108;2023-02-11T07:15:23;26.60;;;10.15;;
28934;SDS011;16044;52.726;-2.108;2023-02-11T07:17:50;23.13;;;9.70;;
28934;SDS011;16044;52.726;-2.108;2023-02-11T07:20:17;21.83;;;8.43;;
28934;SDS011;16044;52.726;-2.108;2023-02-11T07:22:44;22.10;;;9.35;;
28934;SDS011;16044;52.726;-2.108;2023-02-11T07:25:11;19.40;;;8.63;;
28934;SDS011;16044;52.726;-2.108;2023-02-11T07:27:38;24.80;;;9.07;;
28934;SDS011;16044;52.726;-2.108;2023-02-11T07:30:05;24.90;;;8.95;;
28934;SDS011;16044;52.726;-2.108;2023-02-11T07:32:32;17.88;;;7.90;;
28934;SDS011;16044;52.726;-2.108;2023-02-11T07:34:59;19.23;;;7.45;;
28934;SDS011;16044;52.726;-2.108;2023-02-11T07:37:26;18.35;;;7.50;;
28934;SDS011;16044;52.726;-2.108;2023-02-11T07:39:53;18.05;;;8.02;;
28934;SDS011;16044;52.726;-2.108;2023-02-11T07:42:20;17.23;;;7.05;;
28934;SDS011;16044;52.726;-2.108;2023-02-11T07:44:47;18.40;;;8.43;;
28934;SDS011;16044;52.726;-2.108;2023-02-11T07:47:15;19.25;;;8.10;;
28934;SDS011;16044;52.726;-2.108;2023-02-11T07:49:42;14.80;;;6.80;;
28934;SDS011;16044;52.726;-2.108;2023-02-11T07:52:09;14.25;;;6.32;;
28934;SDS011;16044;52.726;-2.108;2023-02-11T07:54:36;13.20;;;5.45;;
28934;SDS011;16044;52.726;-2.108;2023-02-11T07:57:03;19.83;;;7.03;;
28934;SDS011;16044;52.726;-2.108;2023-02-11T07:59:29;20.73;;;6.93;;
28934;SDS011;16044;52.726;-2.108;2023-02-11T08:01:56;19.85;;;6.90;;
28934;SDS011;16044;52.726;-2.108;2023-02-11T08:04:23;14.90;;;5.90;;
28934;SDS011;16044;52.726;-2.108;2023-02-11T08:06:50;14.40;;;5.50;;
28934;SDS011;16044;52.726;-2.108;2023-02-11T08:09:23;12.95;;;5.13;;
28934;SDS011;16044;52.726;-2.108;2023-02-11T08:11:50;10.00;;;4.70;;
28934;SDS011;16044;52.726;-2.108;2023-02-11T08:14:17;11.88;;;4.10;;
28934;SDS011;16044;52.726;-2.108;2023-02-11T08:16:44;10.93;;;3.53;;
28934;SDS011;16044;52.726;-2.108;2023-02-11T08:19:12;11.88;;;4.18;;
28934;SDS011;16044;52.726;-2.108;2023-02-11T08:21:42;12.20;;;4.10;;
28934;SDS011;16044;52.726;-2.108;2023-02-11T08:24:09;13.98;;;4.40;;
28934;SDS011;16044;52.726;-2.108;2023-02-11T08:26:36;10.15;;;3.90;;
28934;SDS011;16044;52.726;-2.108;2023-02-11T08:29:08;10.05;;;3.72;;
28934;SDS011;16044;52.726;-2.108;2023-02-11T08:34:09;11.95;;;3.38;;
28934;SDS011;16044;52.726;-2.108;2023-02-11T08:36:37;15.07;;;3.80;;
28934;SDS011;16044;52.726;-2.108;2023-02-11T08:39:07;9.63;;;3.28;;
28934;SDS011;16044;52.726;-2.108;2023-02-11T08:41:46;13.30;;;3.75;;
28934;SDS011;16044;52.726;-2.108;2023-02-11T08:44:18;8.48;;;3.83;;
28934;SDS011;16044;52.726;-2.108;2023-02-11T08:46:46;10.32;;;3.38;;
28934;SDS011;16044;52.726;-2.108;2023-02-11T08:49:14;11.75;;;3.63;;
28934;SDS011;16044;52.726;-2.108;2023-02-11T08:51:42;12.68;;;4.10;;
28934;SDS011;16044;52.726;-2.108;2023-02-11T08:54:09;11.13;;;3.75;;
28934;SDS011;16044;52.726;-2.108;2023-02-11T08:56:36;11.40;;;4.15;;
28934;SDS011;16044;52.726;-2.108;2023-02-11T08:59:04;11.30;;;4.13;;
28934;SDS011;16044;52.726;-2.108;2023-02-11T09:01:32;11.70;;;4.20;;
28934;SDS011;16044;52.726;-2.108;2023-02-11T09:03:59;10.80;;;3.90;;
28934;SDS011;16044;52.726;-2.108;2023-02-11T09:06:28;10.18;;;3.97;;
28934;SDS011;16044;52.726;-2.108;2023-02-11T09:08:55;10.73;;;4.03;;
28934;SDS011;16044;52.726;-2.108;2023-02-11T09:11:24;9.07;;;4.00;;
28934;SDS011;16044;52.726;-2.108;2023-02-11T09:13:55;9.48;;;3.80;;
28934;SDS011;16044;52.726;-2.108;2023-02-11T09:16:23;9.80;;;4.03;;
28934;SDS011;16044;52.726;-2.108;2023-02-11T09:18:55;11.73;;;3.90;;
28934;SDS011;16044;52.726;-2.108;2023-02-11T09:21:24;14.07;;;3.88;;
28934;SDS011;16044;52.726;-2.108;2023-02-11T09:23:51;7.72;;;3.35;;
28934;SDS011;16044;52.726;-2.108;2023-02-11T09:26:20;7.70;;;3.70;;
28934;SDS011;16044;52.726;-2.108;2023-02-11T09:28:53;7.93;;;2.83;;
28934;SDS011;16044;52.726;-2.108;2023-02-11T09:31:21;14.52;;;5.00;;
28934;SDS011;16044;52.726;-2.108;2023-02-11T09:33:52;12.65;;;4.25;;
28934;SDS011;16044;52.726;-2.108;2023-02-11T09:36:23;14.07;;;4.40;;
28934;SDS011;16044;52.726;-2.108;2023-02-11T09:38:54;12.65;;;4.03;;
28934;SDS011;16044;52.726;-2.108;2023-02-11T09:44:22;12.82;;;4.03;;
28934;SDS011;16044;52.726;-2.108;2023-02-11T09:46:57;9.32;;;3.75;;
28934;SDS011;16044;52.726;-2.108;2023-02-11T09:49:40;11.00;;;3.85;;
28934;SDS011;16044;52.726;-2.108;2023-02-11T09:52:17;7.47;;;3.70;;
28934;SDS011;16044;52.726;-2.108;2023-02-11T09:55:14;13.77;;;4.00;;
28934;SDS011;16044;52.726;-2.108;2023-02-11T09:57:52;11.45;;;3.40;;
28934;SDS011;16044;52.726;-2.108;2023-02-11T10:00:21;13.00;;;3.83;;
28934;SDS011;16044;52.726;-2.108;2023-02-11T10:20:20;10.77;;;3.15;;
28934;SDS011;16044;52.726;-2.108;2023-02-11T10:22:54;10.23;;;3.45;;
28934;SDS011;16044;52.726;-2.108;2023-02-11T10:25:25;7.65;;;2.97;;
28934;SDS011;16044;52.726;-2.108;2023-02-11T10:28:18;10.82;;;3.17;;
28934;SDS011;16044;52.726;-2.108;2023-02-11T10:31:12;9.35;;;3.20;;
28934;SDS011;16044;52.726;-2.108;2023-02-11T10:33:51;10.50;;;3.05;;
28934;SDS011;16044;52.726;-2.108;2023-02-11T10:36:33;7.50;;;2.72;;
28934;SDS011;16044;52.726;-2.108;2023-02-11T10:39:11;10.68;;;2.70;;
28934;SDS011;16044;52.726;-2.108;2023-02-11T10:41:58;8.10;;;2.75;;
28934;SDS011;16044;52.726;-2.108;2023-02-11T10:44:31;8.55;;;3.10;;
28934;SDS011;16044;52.726;-2.108;2023-02-11T10:47:07;5.22;;;2.58;;
28934;SDS011;16044;52.726;-2.108;2023-02-11T10:49:42;12.88;;;3.17;;
28934;SDS011;16044;52.726;-2.108;2023-02-11T10:52:28;8.93;;;2.90;;
28934;SDS011;16044;52.726;-2.108;2023-02-11T10:54:58;9.60;;;2.60;;
28934;SDS011;16044;52.726;-2.108;2023-02-11T10:57:27;8.02;;;2.63;;
28934;SDS011;16044;52.726;-2.108;2023-02-11T11:00:03;9.77;;;2.70;;
28934;SDS011;16044;52.726;-2.108;2023-02-11T11:03:16;12.13;;;2.72;;
28934;SDS011;16044;52.726;-2.108;2023-02-11T11:05:52;6.95;;;2.40;;
28934;SDS011;16044;52.726;-2.108;2023-02-11T11:11:15;6.93;;;2.35;;
28934;SDS011;16044;52.726;-2.108;2023-02-11T11:16:37;7.32;;;2.30;;
28934;SDS011;16044;52.726;-2.108;2023-02-11T11:21:35;6.22;;;2.08;;
28934;SDS011;16044;52.726;-2.108;2023-02-11T11:24:16;5.80;;;2.03;;
28934;SDS011;16044;52.726;-2.108;2023-02-11T11:26:58;5.10;;;2.03;;
28934;SDS011;16044;52.726;-2.108;2023-02-11T11:32:11;7.20;;;3.25;;
28934;SDS011;16044;52.726;-2.108;2023-02-11T11:35:16;9.25;;;3.53;;
28934;SDS011;16044;52.726;-2.108;2023-02-11T11:37:51;9.65;;;2.63;;
28934;SDS011;16044;52.726;-2.108;2023-02-11T11:40:28;8.40;;;2.38;;
28934;SDS011;16044;52.726;-2.108;2023-02-11T11:43:16;6.05;;;2.03;;
28934;SDS011;16044;52.726;-2.108;2023-02-11T11:45:55;7.28;;;2.30;;
28934;SDS011;16044;52.726;-2.108;2023-02-11T11:48:37;4.65;;;1.60;;
28934;SDS011;16044;52.726;-2.108;2023-02-11T11:51:09;4.60;;;1.75;;
28934;SDS011;16044;52.726;-2.108;2023-02-11T11:53:42;6.05;;;1.92;;
28934;SDS011;16044;52.726;-2.108;2023-02-11T11:56:19;4.97;;;1.75;;
28934;SDS011;16044;52.726;-2.108;2023-02-11T11:58:50;9.32;;;2.38;;
28934;SDS011;16044;52.726;-2.108;2023-02-11T12:27:38;9.70;;;1.33;;
28934;SDS011;16044;52.726;-2.108;2023-02-11T12:36:58;5.20;;;1.70;;
28934;SDS011;16044;52.726;-2.108;2023-02-11T12:39:39;6.20;;;1.80;;
28934;SDS011;16044;52.726;-2.108;2023-02-11T12:42:43;5.90;;;2.40;;
28934;SDS011;16044;52.726;-2.108;2023-02-11T12:54:42;5.53;;;1.60;;
28934;SDS011;16044;52.726;-2.108;2023-02-11T12:57:24;5.97;;;1.95;;
28934;SDS011;16044;52.726;-2.108;2023-02-11T12:59:57;9.32;;;2.60;;
28934;SDS011;16044;52.726;-2.108;2023-02-11T13:08:28;4.07;;;1.50;;
28934;SDS011;16044;52.726;-2.108;2023-02-11T13:11:01;4.03;;;1.40;;
28934;SDS011;16044;52.726;-2.108;2023-02-11T13:13:46;5.68;;;1.90;;
28934;SDS011;16044;52.726;-2.108;2023-02-11T13:16:31;5.35;;;1.50;;
28934;SDS011;16044;52.726;-2.108;2023-02-11T13:24:57;4.50;;;1.90;;
28934;SDS011;16044;52.726;-2.108;2023-02-11T13:30:32;8.45;;;2.13;;
28934;SDS011;16044;52.726;-2.108;2023-02-11T13:33:03;5.00;;;2.72;;
28934;SDS011;16044;52.726;-2.108;2023-02-11T13:38:31;6.72;;;2.15;;
28934;SDS011;16044;52.726;-2.108;2023-02-11T13:43:32;7.22;;;2.75;;
28934;SDS011;16044;52.726;-2.108;2023-02-11T13:46:02;7.85;;;1.80;;
28934;SDS011;16044;52.726;-2.108;2023-02-11T13:48:33;5.90;;;1.75;;
28934;SDS011;16044;52.726;-2.108;2023-02-11T13:51:12;3.88;;;1.55;;
28934;SDS011;16044;52.726;-2.108;2023-02-11T13:53:46;5.18;;;1.70;;
28934;SDS011;16044;52.726;-2.108;2023-02-11T13:58:53;6.88;;;2.00;;
28934;SDS011;16044;52.726;-2.108;2023-02-11T14:04:21;7.18;;;2.90;;
28934;SDS011;16044;52.726;-2.108;2023-02-11T14:13:18;6.80;;;3.30;;
28934;SDS011;16044;52.726;-2.108;2023-02-11T14:16:02;6.82;;;3.60;;
28934;SDS011;16044;52.726;-2.108;2023-02-11T14:23:54;6.63;;;2.72;;
28934;SDS011;16044;52.726;-2.108;2023-02-11T14:26:47;6.63;;;2.20;;
28934;SDS011;16044;52.726;-2.108;2023-02-11T14:37:19;5.05;;;1.80;;
28934;SDS011;16044;52.726;-2.108;2023-02-11T14:40:14;6.50;;;2.00;;
28934;SDS011;16044;52.726;-2.108;2023-02-11T14:42:44;4.05;;;1.27;;
28934;SDS011;16044;52.726;-2.108;2023-02-11T14:45:15;5.07;;;1.65;;
28934;SDS011;16044;52.726;-2.108;2023-02-11T14:53:13;4.93;;;2.00;;
28934;SDS011;16044;52.726;-2.108;2023-02-11T14:58:16;7.80;;;4.40;;
28934;SDS011;16044;52.726;-2.108;2023-02-11T15:08:33;12.03;;;4.07;;
28934;SDS011;16044;52.726;-2.108;2023-02-11T15:11:06;8.95;;;2.90;;
28934;SDS011;16044;52.726;-2.108;2023-02-11T15:13:37;12.75;;;5.00;;
28934;SDS011;16044;52.726;-2.108;2023-02-11T15:16:09;18.73;;;6.75;;
28934;SDS011;16044;52.726;-2.108;2023-02-11T15:18:41;13.10;;;5.00;;
28934;SDS011;16044;52.726;-2.108;2023-02-11T15:21:24;12.63;;;4.90;;
28934;SDS011;16044;52.726;-2.108;2023-02-11T15:24:02;13.60;;;6.68;;
28934;SDS011;16044;52.726;-2.108;2023-02-11T15:29:48;12.85;;;7.53;;
28934;SDS011;16044;52.726;-2.108;2023-02-11T15:32:17;11.23;;;4.57;;
28934;SDS011;16044;52.726;-2.108;2023-02-11T15:34:51;7.22;;;4.05;;
28934;SDS011;16044;52.726;-2.108;2023-02-11T15:37:26;6.35;;;3.80;;
28934;SDS011;16044;52.726;-2.108;2023-02-11T15:40:08;7.22;;;3.72;;
28934;SDS011;16044;52.726;-2.108;2023-02-11T15:42:55;14.35;;;6.07;;
28934;SDS011;16044;52.726;-2.108;2023-02-11T15:45:43;11.48;;;4.38;;
28934;SDS011;16044;52.726;-2.108;2023-02-11T15:51:18;5.85;;;3.05;;
28934;SDS011;16044;52.726;-2.108;2023-02-11T15:54:01;6.65;;;3.00;;
28934;SDS011;16044;52.726;-2.108;2023-02-11T15:56:37;7.07;;;2.67;;
28934;SDS011;16044;52.726;-2.108;2023-02-11T15:59:10;4.50;;;2.00;;
28934;SDS011;16044;52.726;-2.108;2023-02-11T16:01:44;33.90;;;19.85;;
28934;SDS011;16044;52.726;-2.108;2023-02-11T16:04:17;23.48;;;13.77;;
28934;SDS011;16044;52.726;-2.108;2023-02-11T16:06:47;25.58;;;14.13;;
28934;SDS011;16044;52.726;-2.108;2023-02-11T16:11:55;55.08;;;26.80;;
28934;SDS011;16044;52.726;-2.108;2023-02-11T16:14:30;30.20;;;14.98;;
28934;SDS011;16044;52.726;-2.108;2023-02-11T16:19:49;10.57;;;4.82;;
28934;SDS011;16044;52.726;-2.108;2023-02-11T16:22:19;9.82;;;3.72;;
28934;SDS011;16044;52.726;-2.108;2023-02-11T16:24:54;7.40;;;2.10;;
28934;SDS011;16044;52.726;-2.108;2023-02-11T16:27:25;5.88;;;2.25;;
28934;SDS011;16044;52.726;-2.108;2023-02-11T16:29:57;4.93;;;2.08;;
28934;SDS011;16044;52.726;-2.108;2023-02-11T16:32:25;4.70;;;2.20;;
28934;SDS011;16044;52.726;-2.108;2023-02-11T16:34:55;22.50;;;10.45;;
28934;SDS011;16044;52.726;-2.108;2023-02-11T16:37:26;38.28;;;19.63;;
28934;SDS011;16044;52.726;-2.108;2023-02-11T16:39:53;23.83;;;11.95;;
28934;SDS011;16044;52.726;-2.108;2023-02-11T16:42:21;16.40;;;7.63;;
28934;SDS011;16044;52.726;-2.108;2023-02-11T16:44:48;10.20;;;5.50;;
28934;SDS011;16044;52.726;-2.108;2023-02-11T16:47:21;8.50;;;5.07;;
28934;SDS011;16044;52.726;-2.108;2023-02-11T16:49:51;23.13;;;11.93;;
28934;SDS011;16044;52.726;-2.108;2023-02-11T16:52:18;21.05;;;11.98;;
28934;SDS011;16044;52.726;-2.108;2023-02-11T16:54:47;17.55;;;10.30;;
28934;SDS011;16044;52.726;-2.108;2023-02-11T16:57:16;14.38;;;6.90;;
28934;SDS011;16044;52.726;-2.108;2023-02-11T16:59:47;10.02;;;4.90;;
28934;SDS011;16044;52.726;-2.108;2023-02-11T17:04:54;11.73;;;5.25;;
28934;SDS011;16044;52.726;-2.108;2023-02-11T17:07:24;7.55;;;4.55;;
28934;SDS011;16044;52.726;-2.108;2023-02-11T17:09:51;11.90;;;6.82;;
28934;SDS011;16044;52.726;-2.108;2023-02-11T17:12:19;12.38;;;7.43;;
28934;SDS011;16044;52.726;-2.108;2023-02-11T17:14:46;9.32;;;6.53;;
28934;SDS011;16044;52.726;-2.108;2023-02-11T17:17:13;8.35;;;6.00;;
28934;SDS011;16044;52.726;-2.108;2023-02-11T17:19:41;8.70;;;4.50;;
28934;SDS011;16044;52.726;-2.108;2023-02-11T17:22:09;14.63;;;7.47;;
28934;SDS011;16044;52.726;-2.108;2023-02-11T17:24:37;13.10;;;8.07;;
28934;SDS011;16044;52.726;-2.108;2023-02-11T17:27:04;12.02;;;7.63;;
28934;SDS011;16044;52.726;-2.108;2023-02-11T17:29:30;11.35;;;5.85;;
28934;SDS011;16044;52.726;-2.108;2023-02-11T17:31:57;8.95;;;5.60;;
28934;SDS011;16044;52.726;-2.108;2023-02-11T17:34:24;11.35;;;7.75;;
28934;SDS011;16044;52.726;-2.108;2023-02-11T17:36:51;11.35;;;6.85;;
28934;SDS011;16044;52.726;-2.108;2023-02-11T17:39:18;13.43;;;8.23;;
28934;SDS011;16044;52.726;-2.108;2023-02-11T17:41:46;19.42;;;10.77;;
28934;SDS011;16044;52.726;-2.108;2023-02-11T17:44:13;27.40;;;14.18;;
28934;SDS011;16044;52.726;-2.108;2023-02-11T17:46:42;25.33;;;13.00;;
28934;SDS011;16044;52.726;-2.108;2023-02-11T17:49:10;20.52;;;9.98;;
28934;SDS011;16044;52.726;-2.108;2023-02-11T17:51:37;15.85;;;8.63;;
28934;SDS011;16044;52.726;-2.108;2023-02-11T17:54:06;26.00;;;13.77;;
28934;SDS011;16044;52.726;-2.108;2023-02-11T17:56:42;29.90;;;16.27;;